createdAt,value
2023-05-19T00:01:17.546Z,1.75
2023-05-19T00:04:01.815Z,1.92
2023-05-19T00:06:31.794Z,2.63
2023-05-19T00:09:05.381Z,1.85
2023-05-19T00:11:36.041Z,2.17
2023-05-19T00:14:05.917Z,2.53
2023-05-19T00:16:33.395Z,2.13
2023-05-19T00:19:02.612Z,2.38
2023-05-19T00:21:30.101Z,2.10
2023-05-19T00:23:57.700Z,2.00
2023-05-19T00:26:26.871Z,2.05
2023-05-19T00:28:54.324Z,1.52
2023-05-19T00:31:21.260Z,1.75
2023-05-19T00:33:48.083Z,1.98
2023-05-19T00:36:14.900Z,3.08
2023-05-19T00:38:41.728Z,1.83
2023-05-19T00:41:08.551Z,2.40
2023-05-19T00:43:35.422Z,2.30
2023-05-19T00:46:02.718Z,2.28
2023-05-19T00:48:29.712Z,2.08
2023-05-19T00:51:02.236Z,1.92
2023-05-19T00:53:30.088Z,2.58
2023-05-19T00:55:57.642Z,2.22
2023-05-19T00:58:29.169Z,2.40
2023-05-19T01:01:04.208Z,2.13
2023-05-19T01:03:35.108Z,2.28
2023-05-19T01:06:07.173Z,2.00
2023-05-19T01:08:38.658Z,2.25
2023-05-19T01:11:07.027Z,2.22
2023-05-19T01:13:35.705Z,1.67
2023-05-19T01:16:16.314Z,2.58
2023-05-19T01:19:15.973Z,2.58
2023-05-19T01:22:07.392Z,2.47
2023-05-19T01:25:11.307Z,2.92
2023-05-19T01:28:05.093Z,2.40
2023-05-19T01:30:41.249Z,2.47
2023-05-19T01:33:14.306Z,2.20
2023-05-19T01:35:43.300Z,2.47
2023-05-19T01:38:13.845Z,2.22
2023-05-19T01:40:41.939Z,2.05
2023-05-19T01:43:13.223Z,2.05
2023-05-19T01:45:40.507Z,2.10
2023-05-19T01:48:10.888Z,2.63
2023-05-19T01:50:38.153Z,2.97
2023-05-19T01:53:05.052Z,2.30
2023-05-19T01:55:32.097Z,2.28
2023-05-19T01:58:22.895Z,2.40
2023-05-19T02:01:13.170Z,2.50
2023-05-19T02:04:13.442Z,2.65
2023-05-19T02:07:17.273Z,2.25
2023-05-19T02:10:05.473Z,2.38
2023-05-19T02:12:36.371Z,2.55
2023-05-19T02:15:38.635Z,1.92
2023-05-19T02:18:06.323Z,2.28
2023-05-19T02:20:33.572Z,2.08
2023-05-19T02:23:00.652Z,2.35
2023-05-19T02:25:27.466Z,3.15
2023-05-19T02:27:54.971Z,1.90
2023-05-19T02:30:21.801Z,2.38
2023-05-19T02:32:48.672Z,2.30
2023-05-19T02:35:15.689Z,1.92
2023-05-19T02:37:42.554Z,2.20
2023-05-19T02:40:09.677Z,1.92
2023-05-19T02:42:36.478Z,2.08
2023-05-19T02:45:03.426Z,2.25
2023-05-19T02:47:30.286Z,1.90
2023-05-19T02:49:57.098Z,2.40
2023-05-19T02:52:23.941Z,2.10
2023-05-19T02:54:51.447Z,2.10
2023-05-19T02:57:18.282Z,2.20
2023-05-19T02:59:45.114Z,2.58
2023-05-19T03:02:12.190Z,2.70
2023-05-19T03:04:42.032Z,2.50
2023-05-19T03:07:10.215Z,2.55
2023-05-19T03:09:42.679Z,2.63
2023-05-19T03:12:09.673Z,2.42
2023-05-19T03:14:39.278Z,2.53
2023-05-19T03:17:10.189Z,1.98
2023-05-19T03:19:37.128Z,2.45
2023-05-19T03:22:04.278Z,2.53
2023-05-19T03:24:31.522Z,2.30
2023-05-19T03:26:58.346Z,2.38
2023-05-19T03:29:25.175Z,2.63
2023-05-19T03:31:52.197Z,2.47
2023-05-19T03:34:19.036Z,2.70
2023-05-19T03:36:45.968Z,2.35
2023-05-19T03:39:12.807Z,4.38
2023-05-19T03:41:39.614Z,3.58
2023-05-19T03:44:06.463Z,2.53
2023-05-19T03:46:33.287Z,2.78
2023-05-19T03:49:00.145Z,2.78
2023-05-19T03:51:28.534Z,2.50
2023-05-19T03:53:55.852Z,3.00
2023-05-19T03:56:24.988Z,2.15
2023-05-19T03:58:51.831Z,2.58
2023-05-19T04:01:18.689Z,3.25
2023-05-19T04:03:45.647Z,3.13
2023-05-19T04:06:12.922Z,2.30
2023-05-19T04:08:40.134Z,3.05
2023-05-19T04:11:06.952Z,2.78
2023-05-19T04:13:34.793Z,2.83
2023-05-19T04:16:01.882Z,3.03
2023-05-19T04:18:29.363Z,2.97
2023-05-19T04:20:56.397Z,3.20
2023-05-19T04:23:23.529Z,2.80
2023-05-19T04:25:50.572Z,2.80
2023-05-19T04:28:18.114Z,2.35
2023-05-19T04:30:46.522Z,2.28
2023-05-19T04:33:13.725Z,2.75
2023-05-19T04:35:40.735Z,2.83
2023-05-19T04:38:07.619Z,2.63
2023-05-19T04:40:34.706Z,3.00
2023-05-19T04:43:02.263Z,2.50
2023-05-19T04:45:33.065Z,2.50
2023-05-19T04:48:00.195Z,2.33
2023-05-19T04:50:28.588Z,2.80
2023-05-19T04:52:55.810Z,2.35
2023-05-19T04:55:23.020Z,3.10
2023-05-19T04:57:49.856Z,2.72
2023-05-19T05:00:17.204Z,3.00
2023-05-19T05:02:46.904Z,3.20
2023-05-19T05:05:13.907Z,2.40
2023-05-19T05:07:40.709Z,3.03
2023-05-19T05:10:08.477Z,2.70
2023-05-19T05:12:35.863Z,2.10
2023-05-19T05:15:03.121Z,3.15
2023-05-19T05:17:30.284Z,2.60
2023-05-19T05:19:57.451Z,2.30
2023-05-19T05:22:27.033Z,2.35
2023-05-19T05:24:54.280Z,2.85
2023-05-19T05:27:21.368Z,2.92
2023-05-19T05:29:48.249Z,2.42
2023-05-19T05:32:16.936Z,3.30
2023-05-19T05:34:43.919Z,2.70
2023-05-19T05:37:13.101Z,3.65
2023-05-19T05:39:40.905Z,3.33
2023-05-19T05:42:09.132Z,3.10
2023-05-19T05:44:35.968Z,2.70
2023-05-19T05:47:03.952Z,2.50
2023-05-19T05:49:31.170Z,2.83
2023-05-19T05:52:05.648Z,2.25
2023-05-19T05:54:33.879Z,2.47
2023-05-19T05:57:02.475Z,3.00
2023-05-19T05:59:29.352Z,2.55
2023-05-19T06:01:56.320Z,2.35
2023-05-19T06:04:23.181Z,2.42
2023-05-19T06:06:50.069Z,2.53
2023-05-19T06:09:17.009Z,2.20
2023-05-19T06:11:43.917Z,2.95
2023-05-19T06:14:10.796Z,2.15
2023-05-19T06:16:37.855Z,2.33
2023-05-19T06:19:04.902Z,3.50
2023-05-19T06:21:31.889Z,2.58
2023-05-19T06:23:58.739Z,2.78
2023-05-19T06:26:26.403Z,2.47
2023-05-19T06:28:53.282Z,2.40
2023-05-19T06:31:20.157Z,2.67
2023-05-19T06:33:47.045Z,2.20
2023-05-19T06:36:13.970Z,2.38
2023-05-19T06:38:40.929Z,2.63
2023-05-19T06:41:07.963Z,2.35
2023-05-19T06:43:34.759Z,2.10
2023-05-19T06:46:01.619Z,1.90
2023-05-19T06:48:28.631Z,2.17
2023-05-19T06:50:55.990Z,2.47
2023-05-19T06:53:22.834Z,1.77
2023-05-19T06:55:59.212Z,2.22
2023-05-19T06:58:27.043Z,2.20
2023-05-19T07:00:53.915Z,2.20
2023-05-19T07:03:20.882Z,2.25
2023-05-19T07:05:47.911Z,2.30
2023-05-19T07:08:14.750Z,2.60
2023-05-19T07:10:41.566Z,2.47
2023-05-19T07:13:08.418Z,2.80
2023-05-19T07:15:35.424Z,2.10
2023-05-19T07:18:02.292Z,2.50
2023-05-19T07:20:29.119Z,2.67
2023-05-19T07:22:55.984Z,1.88
2023-05-19T07:25:22.869Z,1.80
2023-05-19T07:27:49.751Z,2.13
2023-05-19T07:30:16.597Z,2.83
2023-05-19T07:32:43.438Z,2.28
2023-05-19T07:35:10.530Z,2.08
2023-05-19T07:37:37.440Z,2.35
2023-05-19T07:40:06.710Z,2.35
2023-05-19T07:42:34.083Z,2.35
2023-05-19T07:45:01.228Z,2.00
2023-05-19T07:47:28.082Z,2.47
2023-05-19T07:49:54.910Z,1.90
2023-05-19T07:52:21.757Z,2.20
2023-05-19T07:54:48.569Z,2.35
2023-05-19T07:57:15.434Z,2.25
2023-05-19T07:59:42.367Z,1.63
2023-05-19T08:02:09.270Z,2.00
2023-05-19T08:04:36.421Z,1.70
2023-05-19T08:07:03.778Z,1.73
2023-05-19T08:09:33.281Z,1.90
2023-05-19T08:12:01.669Z,1.55
2023-05-19T08:14:28.619Z,2.33
2023-05-19T08:16:55.494Z,1.85
2023-05-19T08:19:22.672Z,1.83
2023-05-19T08:21:49.722Z,1.60
2023-05-19T08:24:16.619Z,1.73
2023-05-19T08:26:44.396Z,2.10
2023-05-19T08:29:11.269Z,1.95
2023-05-19T08:31:38.174Z,1.50
2023-05-19T08:34:05.120Z,1.80
2023-05-19T08:36:32.174Z,1.70
2023-05-19T08:38:58.985Z,1.55
2023-05-19T08:41:26.395Z,1.95
2023-05-19T08:43:53.301Z,2.78
2023-05-19T08:46:22.150Z,1.52
2023-05-19T08:48:49.624Z,1.77
2023-05-19T08:51:36.397Z,1.83
2023-05-19T08:54:15.773Z,1.40
2023-05-19T08:56:46.625Z,1.85
2023-05-19T08:59:18.287Z,1.65
2023-05-19T09:01:46.304Z,2.15
2023-05-19T09:04:13.631Z,2.10
2023-05-19T09:06:45.157Z,1.85
2023-05-19T09:09:12.256Z,1.30
2023-05-19T09:11:39.073Z,2.38
2023-05-19T09:14:06.319Z,1.45
2023-05-19T09:16:33.899Z,1.80
2023-05-19T09:19:01.180Z,1.85
2023-05-19T09:21:31.945Z,1.75
2023-05-19T09:24:08.374Z,1.55
2023-05-19T09:26:40.290Z,2.00
2023-05-19T09:29:15.973Z,1.85
2023-05-19T09:31:51.489Z,1.33
2023-05-19T09:34:19.237Z,1.75
2023-05-19T09:36:49.601Z,2.00
2023-05-19T09:39:17.957Z,1.60
2023-05-19T09:41:45.234Z,1.90
2023-05-19T09:44:21.308Z,1.67
2023-05-19T09:46:53.374Z,2.05
2023-05-19T09:49:21.693Z,1.60
2023-05-19T09:52:07.745Z,1.52
2023-05-19T09:54:34.885Z,1.27
2023-05-19T09:57:05.530Z,1.55
2023-05-19T09:59:34.185Z,1.05
2023-05-19T10:02:02.404Z,1.17
2023-05-19T10:04:30.887Z,1.65
2023-05-19T10:07:05.367Z,1.52
2023-05-19T10:11:59.475Z,1.00
2023-05-19T10:14:29.149Z,1.48
2023-05-19T10:16:59.092Z,1.40
2023-05-19T10:19:29.600Z,1.52
2023-05-19T10:21:56.904Z,1.40
2023-05-19T10:24:23.835Z,2.33
2023-05-19T10:27:07.816Z,1.25
2023-05-19T10:29:40.046Z,1.40
2023-05-19T10:32:16.794Z,1.13
2023-05-19T10:35:32.529Z,1.40
2023-05-19T10:38:14.336Z,1.10
2023-05-19T10:41:01.213Z,1.27
2023-05-19T10:43:52.141Z,1.20
2023-05-19T10:46:23.646Z,1.30
2023-05-19T10:48:51.479Z,0.75
2023-05-19T10:51:18.409Z,1.30
2023-05-19T10:53:50.099Z,1.10
2023-05-19T10:56:35.965Z,1.13
2023-05-19T10:59:03.722Z,1.15
2023-05-19T11:01:33.321Z,1.27
2023-05-19T11:04:12.069Z,1.25
2023-05-19T11:06:40.327Z,0.90
2023-05-19T11:09:22.472Z,1.08
2023-05-19T11:11:55.461Z,1.13
2023-05-19T11:14:26.671Z,0.85
2023-05-19T11:16:58.231Z,1.00
2023-05-19T11:19:30.737Z,0.88
2023-05-19T11:22:10.015Z,1.38
2023-05-19T11:24:44.458Z,1.10
2023-05-19T11:27:33.232Z,1.00
2023-05-19T11:30:09.539Z,0.88
2023-05-19T11:32:39.272Z,1.10
2023-05-19T11:35:08.133Z,1.05
2023-05-19T11:37:35.802Z,1.10
2023-05-19T11:40:07.179Z,1.20
2023-05-19T11:42:35.472Z,1.10
2023-05-19T11:45:03.367Z,0.77
2023-05-19T11:47:42.060Z,1.02
2023-05-19T11:50:14.319Z,0.80
2023-05-19T11:52:46.218Z,1.60
2023-05-19T11:55:23.800Z,1.25
2023-05-19T11:58:05.191Z,0.68
2023-05-19T12:00:39.441Z,1.05
2023-05-19T12:03:07.829Z,0.85
2023-05-19T12:05:43.239Z,1.02
2023-05-19T12:08:11.790Z,1.58
2023-05-19T12:10:40.172Z,1.00
2023-05-19T12:13:10.645Z,1.20
2023-05-19T12:15:39.116Z,0.80
2023-05-19T12:18:06.558Z,0.93
2023-05-19T12:20:35.518Z,0.90
2023-05-19T12:23:03.196Z,1.25
2023-05-19T12:25:31.361Z,0.80
2023-05-19T12:28:03.079Z,1.00
2023-05-19T12:30:32.372Z,0.93
2023-05-19T12:33:00.058Z,1.17
2023-05-19T12:35:34.434Z,1.20
2023-05-19T12:40:34.239Z,1.00
2023-05-19T12:43:01.403Z,1.58
2023-05-19T12:45:28.760Z,1.00
2023-05-19T12:47:56.198Z,0.95
2023-05-19T12:50:31.149Z,1.08
2023-05-19T12:52:59.947Z,1.00
2023-05-19T12:55:27.057Z,1.10
2023-05-19T12:57:56.854Z,0.80
2023-05-19T13:00:32.462Z,0.95
2023-05-19T13:03:07.763Z,0.82
2023-05-19T13:05:39.715Z,1.00
2023-05-19T13:08:09.134Z,0.85
2023-05-19T13:10:38.297Z,1.30
2023-05-19T13:13:07.284Z,0.80
2023-05-19T13:15:37.863Z,1.10
2023-05-19T13:18:08.715Z,0.77
2023-05-19T13:20:37.633Z,0.90
2023-05-19T13:23:05.722Z,1.17
2023-05-19T13:25:36.071Z,1.17
2023-05-19T13:28:06.505Z,0.95
2023-05-19T13:30:35.660Z,1.00
2023-05-19T13:33:03.062Z,0.80
2023-05-19T13:35:31.284Z,0.95
2023-05-19T13:37:58.353Z,0.85
2023-05-19T13:40:28.026Z,0.98
2023-05-19T13:42:55.041Z,1.20
2023-05-19T13:45:21.851Z,0.80
2023-05-19T13:47:49.213Z,0.60
2023-05-19T13:50:16.083Z,0.60
2023-05-19T13:52:43.067Z,0.77
2023-05-19T13:55:10.015Z,0.73
2023-05-19T13:57:36.978Z,0.70
2023-05-19T14:00:05.411Z,1.00
2023-05-19T14:02:33.779Z,0.98
2023-05-19T14:05:00.708Z,1.38
2023-05-19T14:07:28.306Z,0.80
2023-05-19T14:09:55.271Z,0.73
2023-05-19T14:12:25.589Z,0.70
2023-05-19T14:17:28.406Z,1.00
2023-05-19T14:19:55.834Z,1.02
2023-05-19T14:22:22.698Z,0.90
2023-05-19T14:24:49.660Z,1.08
2023-05-19T14:27:16.710Z,0.82
2023-05-19T14:29:43.875Z,0.70
2023-05-19T14:32:10.871Z,0.93
2023-05-19T14:34:37.750Z,0.85
2023-05-19T14:37:04.706Z,0.75
2023-05-19T14:39:31.568Z,0.70
2023-05-19T14:42:01.356Z,0.85
2023-05-19T14:44:35.040Z,0.80
2023-05-19T14:47:02.592Z,0.63
2023-05-19T14:49:30.110Z,1.08
2023-05-19T14:51:57.016Z,1.00
2023-05-19T14:54:23.877Z,0.60
2023-05-19T14:56:50.716Z,1.25
2023-05-19T14:59:17.633Z,0.90
2023-05-19T15:01:44.569Z,1.05
2023-05-19T15:04:11.535Z,1.10
2023-05-19T15:06:38.397Z,1.00
2023-05-19T15:09:05.428Z,0.82
2023-05-19T15:11:32.260Z,1.02
2023-05-19T15:13:59.074Z,1.10
2023-05-19T15:16:26.085Z,1.00
2023-05-19T15:18:53.013Z,1.10
2023-05-19T15:21:19.898Z,0.88
2023-05-19T15:23:47.591Z,1.10
2023-05-19T15:26:14.458Z,0.90
2023-05-19T15:28:41.393Z,1.35
2023-05-19T15:31:08.383Z,1.17
2023-05-19T15:33:35.435Z,1.00
2023-05-19T15:36:02.241Z,1.33
2023-05-19T15:38:30.103Z,1.00
2023-05-19T15:40:57.628Z,0.95
2023-05-19T15:43:25.196Z,0.90
2023-05-19T15:45:54.899Z,0.80
2023-05-19T15:48:21.758Z,0.70
2023-05-19T15:50:48.768Z,0.68
2023-05-19T15:53:15.668Z,0.90
2023-05-19T15:55:42.481Z,0.70
2023-05-19T15:58:09.315Z,1.10
2023-05-19T16:00:36.255Z,0.80
2023-05-19T16:03:03.208Z,1.20
2023-05-19T16:05:30.148Z,1.20
2023-05-19T16:07:57.017Z,0.90
2023-05-19T16:10:23.887Z,0.93
2023-05-19T16:12:50.695Z,1.13
2023-05-19T16:15:17.624Z,0.65
2023-05-19T16:17:44.598Z,0.73
2023-05-19T16:20:11.729Z,1.00
2023-05-19T16:22:38.651Z,0.90
2023-05-19T16:25:06.369Z,0.93
2023-05-19T16:27:33.212Z,0.82
2023-05-19T16:30:01.142Z,0.75
2023-05-19T16:32:28.095Z,1.27
2023-05-19T16:34:54.947Z,1.10
2023-05-19T16:37:21.888Z,0.90
2023-05-19T16:39:48.823Z,0.88
2023-05-19T16:42:15.726Z,0.90
2023-05-19T16:44:45.375Z,0.70
2023-05-19T16:47:12.244Z,0.82
2023-05-19T16:49:40.767Z,1.17
2023-05-19T16:52:07.989Z,0.70
2023-05-19T16:54:35.028Z,0.98
2023-05-19T16:57:02.239Z,0.90
2023-05-19T16:59:29.083Z,0.80
2023-05-19T17:01:58.934Z,0.93
2023-05-19T17:04:27.060Z,0.80
2023-05-19T17:06:55.479Z,1.00
2023-05-19T17:09:25.089Z,1.10
2023-05-19T17:11:53.759Z,0.75
2023-05-19T17:14:23.454Z,0.80
2023-05-19T17:16:52.304Z,0.80
2023-05-19T17:19:19.282Z,0.80
2023-05-19T17:21:46.301Z,1.20
2023-05-19T17:24:13.185Z,1.10
2023-05-19T17:26:40.227Z,1.27
2023-05-19T17:29:08.329Z,1.00
2023-05-19T17:31:35.214Z,1.10
2023-05-19T17:34:02.077Z,0.73
2023-05-19T17:36:28.988Z,1.00
2023-05-19T17:38:55.853Z,0.90
2023-05-19T17:41:22.757Z,1.00
2023-05-19T17:43:49.653Z,1.35
2023-05-19T17:46:16.552Z,0.82
2023-05-19T17:48:43.854Z,1.42
2023-05-19T17:51:11.359Z,1.05
2023-05-19T17:53:38.472Z,1.00
2023-05-19T17:56:08.806Z,0.70
2023-05-19T17:58:36.330Z,0.93
2023-05-19T18:01:03.263Z,0.95
2023-05-19T18:03:30.748Z,0.88
2023-05-19T18:05:58.774Z,0.90
2023-05-19T18:08:26.131Z,0.80
2023-05-19T18:10:54.036Z,1.10
2023-05-19T18:13:21.886Z,1.08
2023-05-19T18:15:49.246Z,0.52
2023-05-19T18:18:16.262Z,0.88
2023-05-19T18:20:45.480Z,1.15
2023-05-19T18:23:12.579Z,0.90
2023-05-19T18:25:39.560Z,1.05
2023-05-19T18:28:06.436Z,1.38
2023-05-19T18:30:33.532Z,1.23
2023-05-19T18:33:03.351Z,1.08
2023-05-19T18:35:30.271Z,1.00
2023-05-19T18:37:57.318Z,1.15
2023-05-19T18:40:24.551Z,0.68
2023-05-19T18:42:51.445Z,0.70
2023-05-19T18:45:18.409Z,0.80
2023-05-19T18:47:45.796Z,0.65
2023-05-19T18:50:12.977Z,1.05
2023-05-19T18:52:40.867Z,0.80
2023-05-19T18:55:08.237Z,1.23
2023-05-19T18:57:35.072Z,0.77
2023-05-19T19:00:02.026Z,0.85
2023-05-19T19:02:28.884Z,1.20
2023-05-19T19:04:55.802Z,0.70
2023-05-19T19:07:25.059Z,0.98
2023-05-19T19:09:51.864Z,1.02
2023-05-19T19:12:20.386Z,1.20
2023-05-19T19:14:47.549Z,0.73
2023-05-19T19:17:14.570Z,0.77
2023-05-19T19:19:41.604Z,0.80
2023-05-19T19:22:08.604Z,1.13
2023-05-19T19:24:35.811Z,0.95
2023-05-19T19:27:02.692Z,0.77
2023-05-19T19:29:29.819Z,1.45
2023-05-19T19:31:56.664Z,0.93
2023-05-19T19:34:23.541Z,1.02
2023-05-19T19:36:50.581Z,0.90
2023-05-19T19:39:17.443Z,0.75
2023-05-19T19:41:44.369Z,1.08
2023-05-19T19:44:11.251Z,0.80
2023-05-19T19:46:38.159Z,0.88
2023-05-19T19:49:05.186Z,0.82
2023-05-19T19:51:32.046Z,1.00
2023-05-19T19:53:59.276Z,1.05
2023-05-19T19:56:27.404Z,1.08
2023-05-19T19:58:56.776Z,0.70
2023-05-19T20:01:27.436Z,0.85
2023-05-19T20:03:55.520Z,0.88
2023-05-19T20:06:22.623Z,1.10
2023-05-19T20:08:50.133Z,1.25
2023-05-19T20:11:17.323Z,1.00
2023-05-19T20:13:44.142Z,0.90
2023-05-19T20:16:11.158Z,1.00
2023-05-19T20:18:38.592Z,1.65
2023-05-19T20:21:05.554Z,1.05
2023-05-19T20:23:32.472Z,1.50
2023-05-19T20:26:11.971Z,1.50
2023-05-19T20:28:39.810Z,1.35
2023-05-19T20:31:06.808Z,1.10
2023-05-19T20:33:34.802Z,1.00
2023-05-19T20:36:01.613Z,1.00
2023-05-19T20:38:28.488Z,0.98
2023-05-19T20:40:55.571Z,1.30
2023-05-19T20:43:22.362Z,1.48
2023-05-19T20:45:49.298Z,1.58
2023-05-19T20:48:16.229Z,0.95
2023-05-19T20:50:43.164Z,1.27
2023-05-19T20:53:10.043Z,1.05
2023-05-19T20:55:38.593Z,1.38
2023-05-19T20:58:05.731Z,0.80
2023-05-19T21:00:33.073Z,1.05
2023-05-19T21:03:00.721Z,1.02
2023-05-19T21:05:27.624Z,1.00
2023-05-19T21:07:54.467Z,1.45
2023-05-19T21:10:21.402Z,1.08
2023-05-19T21:12:48.283Z,1.00
2023-05-19T21:15:15.707Z,1.20
2023-05-19T21:17:42.692Z,1.05
2023-05-19T21:20:10.249Z,1.35
2023-05-19T21:22:37.094Z,1.33
2023-05-19T21:25:04.208Z,1.70
2023-05-19T21:27:32.814Z,1.30
2023-05-19T21:29:59.974Z,1.70
2023-05-19T21:32:27.709Z,1.50
2023-05-19T21:34:54.569Z,1.45
2023-05-19T21:37:21.732Z,1.33
2023-05-19T21:39:48.920Z,1.40
2023-05-19T21:42:15.837Z,1.30
2023-05-19T21:44:42.662Z,1.50
2023-05-19T21:47:09.473Z,1.40
2023-05-19T21:49:38.177Z,1.35
2023-05-19T21:52:06.386Z,1.35
2023-05-19T21:54:36.493Z,1.20
2023-05-19T21:57:03.544Z,1.55
2023-05-19T21:59:30.493Z,1.33
2023-05-19T22:01:57.359Z,1.00
2023-05-19T22:04:24.256Z,1.40
2023-05-19T22:06:51.114Z,1.15
2023-05-19T22:09:18.012Z,1.00
2023-05-19T22:11:44.904Z,1.02
2023-05-19T22:14:11.899Z,1.35
2023-05-19T22:16:38.817Z,1.35
2023-05-19T22:19:05.687Z,1.20
2023-05-19T22:21:35.138Z,1.10
2023-05-19T22:24:02.385Z,2.42
2023-05-19T22:26:29.229Z,1.30
2023-05-19T22:28:56.501Z,1.00
2023-05-19T22:31:23.378Z,1.10
2023-05-19T22:33:50.237Z,1.23
2023-05-19T22:36:17.108Z,1.38
2023-05-19T22:38:43.989Z,1.30
2023-05-19T22:41:11.033Z,1.33
2023-05-19T22:43:38.037Z,1.27
2023-05-19T22:46:05.172Z,1.13
2023-05-19T22:48:32.093Z,1.35
2023-05-19T22:50:58.996Z,1.10
2023-05-19T22:53:25.836Z,1.30
2023-05-19T22:55:52.699Z,1.30
2023-05-19T22:58:19.506Z,1.30
2023-05-19T23:00:46.356Z,1.25
2023-05-19T23:03:13.297Z,1.38
2023-05-19T23:05:40.561Z,1.30
2023-05-19T23:08:07.378Z,1.10
2023-05-19T23:10:34.194Z,1.42
2023-05-19T23:13:01.115Z,1.02
2023-05-19T23:15:27.941Z,1.30
2023-05-19T23:17:54.766Z,1.27
2023-05-19T23:20:21.633Z,1.65
2023-05-19T23:22:48.525Z,1.35
2023-05-19T23:25:15.477Z,1.60
2023-05-19T23:27:42.315Z,1.20
2023-05-19T23:30:09.536Z,1.10
2023-05-19T23:32:38.716Z,1.35
2023-05-19T23:35:16.890Z,1.23
2023-05-19T23:37:43.901Z,1.75
2023-05-19T23:40:11.456Z,1.20
2023-05-19T23:42:38.470Z,1.30
2023-05-19T23:45:06.160Z,1.13
2023-05-19T23:47:33.046Z,1.30
2023-05-19T23:49:59.904Z,1.30
2023-05-19T23:52:26.946Z,1.00
2023-05-19T23:54:53.757Z,1.20
2023-05-19T23:57:20.550Z,1.50
2023-05-19T23:59:47.483Z,1.00
